createdAt,value
2023-01-23T00:01:08.597Z,3.77
2023-01-23T00:03:35.391Z,3.57
2023-01-23T00:06:08.900Z,3.47
2023-01-23T00:08:36.197Z,3.50
2023-01-23T00:11:07.554Z,3.40
2023-01-23T00:13:35.265Z,4.00
2023-01-23T00:16:11.467Z,4.03
2023-01-23T00:18:38.492Z,3.77
2023-01-23T00:21:12.944Z,4.47
2023-01-23T00:23:43.060Z,4.10
2023-01-23T00:26:13.325Z,4.07
2023-01-23T00:28:40.098Z,3.77
2023-01-23T00:31:13.046Z,3.50
2023-01-23T00:33:40.493Z,3.77
2023-01-23T00:36:08.260Z,3.70
2023-01-23T00:38:35.325Z,3.90
2023-01-23T00:41:02.356Z,3.97
2023-01-23T00:43:30.514Z,4.27
2023-01-23T00:45:57.901Z,4.10
2023-01-23T00:48:25.130Z,4.53
2023-01-23T00:50:52.109Z,3.80
2023-01-23T00:53:19.202Z,3.83
2023-01-23T00:55:46.010Z,3.67
2023-01-23T00:58:12.790Z,4.00
2023-01-23T01:00:40.176Z,4.57
2023-01-23T01:03:07.641Z,4.53
2023-01-23T01:05:34.959Z,4.00
2023-01-23T01:08:01.708Z,4.23
2023-01-23T01:10:29.570Z,4.20
2023-01-23T01:12:58.054Z,4.03
2023-01-23T01:15:25.891Z,4.43
2023-01-23T01:17:55.514Z,3.70
2023-01-23T01:20:23.873Z,4.30
2023-01-23T01:22:50.926Z,4.10
2023-01-23T01:25:18.113Z,4.60
2023-01-23T01:27:45.091Z,4.03
2023-01-23T01:30:12.638Z,4.07
2023-01-23T01:32:41.462Z,3.93
2023-01-23T01:35:09.559Z,3.80
2023-01-23T01:37:38.396Z,3.93
2023-01-23T01:40:12.092Z,3.77
2023-01-23T01:42:40.770Z,4.00
2023-01-23T01:45:28.347Z,3.70
2023-01-23T01:47:55.280Z,3.57
2023-01-23T01:50:22.275Z,4.17
2023-01-23T01:52:49.064Z,4.27
2023-01-23T01:55:16.045Z,4.13
2023-01-23T01:57:45.290Z,4.30
2023-01-23T02:00:16.017Z,4.37
2023-01-23T02:02:47.148Z,4.20
2023-01-23T02:05:17.514Z,3.87
2023-01-23T02:08:21.732Z,4.67
2023-01-23T02:10:49.168Z,3.80
2023-01-23T02:13:35.953Z,4.13
2023-01-23T02:16:12.345Z,4.13
2023-01-23T02:18:44.626Z,4.20
2023-01-23T02:21:13.447Z,4.00
2023-01-23T02:24:28.184Z,4.43
2023-01-23T02:26:54.976Z,3.60
2023-01-23T02:29:21.731Z,3.87
2023-01-23T02:31:51.827Z,4.10
2023-01-23T02:34:18.938Z,4.30
2023-01-23T02:36:48.622Z,3.90
2023-01-23T02:39:20.570Z,3.77
2023-01-23T02:41:49.890Z,3.80
2023-01-23T02:44:29.577Z,3.90
2023-01-23T02:46:59.488Z,3.57
2023-01-23T02:49:26.591Z,4.27
2023-01-23T02:51:55.198Z,4.20
2023-01-23T02:54:23.400Z,3.87
2023-01-23T02:56:50.462Z,3.90
2023-01-23T02:59:35.991Z,4.07
2023-01-23T03:02:04.078Z,4.43
2023-01-23T03:04:31.152Z,4.33
2023-01-23T03:06:59.353Z,4.30
2023-01-23T03:09:26.625Z,4.67
2023-01-23T03:11:53.409Z,4.50
2023-01-23T03:14:21.954Z,4.53
2023-01-23T03:16:51.473Z,4.60
2023-01-23T03:19:20.048Z,4.30
2023-01-23T03:21:46.801Z,4.17
2023-01-23T03:24:15.283Z,4.87
2023-01-23T03:26:43.947Z,4.63
2023-01-23T03:29:38.421Z,4.33
2023-01-23T03:32:05.755Z,4.13
2023-01-23T03:34:33.140Z,4.50
2023-01-23T03:37:01.229Z,4.70
2023-01-23T03:39:46.311Z,5.07
2023-01-23T03:42:13.113Z,4.27
2023-01-23T03:44:40.300Z,4.33
2023-01-23T03:47:07.486Z,4.27
2023-01-23T03:49:34.505Z,4.53
2023-01-23T03:52:01.203Z,4.50
2023-01-23T03:54:27.908Z,4.50
2023-01-23T03:56:54.864Z,5.20
2023-01-23T03:59:21.699Z,4.60
2023-01-23T04:01:48.332Z,4.57
2023-01-23T04:04:15.456Z,4.90
2023-01-23T04:06:42.091Z,4.50
2023-01-23T04:09:08.885Z,4.10
2023-01-23T04:11:35.519Z,4.53
2023-01-23T04:14:02.259Z,4.10
2023-01-23T04:16:29.055Z,4.80
2023-01-23T04:18:55.867Z,4.10
2023-01-23T04:21:22.669Z,4.30
2023-01-23T04:23:49.805Z,4.90
2023-01-23T04:26:16.512Z,4.50
2023-01-23T04:28:43.232Z,4.23
2023-01-23T04:31:10.170Z,4.43
2023-01-23T04:33:36.991Z,4.67
2023-01-23T04:36:05.983Z,4.20
2023-01-23T04:38:33.918Z,4.57
2023-01-23T04:41:00.869Z,4.80
2023-01-23T04:43:27.722Z,4.77
2023-01-23T04:45:56.247Z,5.27
2023-01-23T04:48:23.838Z,5.13
2023-01-23T04:50:51.332Z,5.40
2023-01-23T04:53:18.660Z,5.13
2023-01-23T04:55:49.171Z,5.50
2023-01-23T04:58:18.407Z,5.47
2023-01-23T05:00:45.853Z,5.80
2023-01-23T05:03:13.191Z,5.77
2023-01-23T05:05:39.931Z,6.40
2023-01-23T05:08:06.734Z,6.37
2023-01-23T05:10:33.518Z,6.47
2023-01-23T05:13:11.638Z,6.03
2023-01-23T05:15:38.670Z,6.33
2023-01-23T05:18:05.445Z,6.73
2023-01-23T05:20:32.123Z,6.97
2023-01-23T05:22:58.839Z,7.07
2023-01-23T05:25:28.097Z,6.97
2023-01-23T05:27:55.110Z,7.33
2023-01-23T05:30:23.466Z,6.93
2023-01-23T05:32:50.574Z,7.73
2023-01-23T05:35:17.709Z,7.50
2023-01-23T05:37:48.156Z,7.60
2023-01-23T05:40:14.859Z,8.23
2023-01-23T05:42:41.595Z,8.40
2023-01-23T05:45:08.576Z,8.27
2023-01-23T05:47:35.781Z,7.37
2023-01-23T05:50:02.532Z,8.17
2023-01-23T05:52:29.241Z,9.13
2023-01-23T05:54:55.985Z,8.60
2023-01-23T05:57:22.855Z,8.63
2023-01-23T05:59:49.711Z,9.60
2023-01-23T06:02:17.323Z,9.30
2023-01-23T06:04:46.386Z,9.70
2023-01-23T06:07:14.857Z,8.93
2023-01-23T06:09:41.821Z,9.30
2023-01-23T06:12:09.971Z,9.13
2023-01-23T06:14:36.749Z,9.60
2023-01-23T06:17:04.449Z,9.50
2023-01-23T06:19:31.176Z,9.93
2023-01-23T06:21:58.052Z,9.57
2023-01-23T06:24:24.862Z,10.57
2023-01-23T06:26:51.543Z,9.67
2023-01-23T06:29:18.284Z,9.50
2023-01-23T06:31:46.198Z,10.23
2023-01-23T06:34:13.513Z,10.40
2023-01-23T06:36:40.573Z,9.40
2023-01-23T06:39:08.171Z,9.73
2023-01-23T06:41:35.037Z,10.47
2023-01-23T06:44:01.822Z,10.17
2023-01-23T06:46:28.560Z,10.00
2023-01-23T06:48:55.478Z,10.00
2023-01-23T06:51:22.339Z,9.93
2023-01-23T06:53:49.112Z,9.40
2023-01-23T06:56:15.994Z,9.83
2023-01-23T06:58:45.552Z,10.73
2023-01-23T07:01:15.772Z,10.77
2023-01-23T07:03:44.837Z,10.40
2023-01-23T07:06:12.964Z,9.13
2023-01-23T07:08:40.060Z,9.93
2023-01-23T07:11:07.227Z,10.03
2023-01-23T07:13:34.690Z,9.23
2023-01-23T07:16:01.779Z,9.53
2023-01-23T07:18:30.356Z,9.87
2023-01-23T07:20:57.547Z,8.97
2023-01-23T07:23:24.523Z,10.20
2023-01-23T07:25:51.303Z,10.00
2023-01-23T07:28:17.956Z,10.37
2023-01-23T07:30:45.463Z,9.53
2023-01-23T07:33:12.587Z,9.97
2023-01-23T07:35:39.806Z,9.57
2023-01-23T07:38:06.509Z,9.90
2023-01-23T07:40:33.364Z,9.53
2023-01-23T07:43:00.101Z,9.90
2023-01-23T07:45:26.957Z,10.00
2023-01-23T07:47:53.651Z,10.17
2023-01-23T07:50:20.777Z,10.17
2023-01-23T07:52:47.721Z,9.90
2023-01-23T07:55:14.495Z,10.30
2023-01-23T07:57:41.274Z,10.57
2023-01-23T08:00:10.769Z,10.07
2023-01-23T08:02:38.256Z,10.90
2023-01-23T08:05:05.399Z,10.93
2023-01-23T08:07:32.128Z,10.47
2023-01-23T08:09:58.778Z,10.70
2023-01-23T08:12:25.438Z,10.30
2023-01-23T08:14:52.116Z,10.77
2023-01-23T08:17:18.739Z,10.40
2023-01-23T08:19:45.484Z,10.40
2023-01-23T08:22:12.139Z,9.90
2023-01-23T08:24:38.844Z,10.57
2023-01-23T08:27:05.589Z,10.17
2023-01-23T08:29:32.510Z,9.90
2023-01-23T08:31:59.948Z,10.50
2023-01-23T08:34:26.835Z,10.03
2023-01-23T08:36:53.512Z,10.37
2023-01-23T08:39:20.679Z,9.43
2023-01-23T08:41:48.448Z,9.53
2023-01-23T08:44:15.453Z,9.50
2023-01-23T08:46:43.149Z,9.73
2023-01-23T08:49:11.273Z,9.90
2023-01-23T08:51:38.520Z,9.93
2023-01-23T08:54:06.065Z,9.67
2023-01-23T08:56:33.160Z,10.13
2023-01-23T08:58:59.898Z,10.07
2023-01-23T09:01:27.850Z,9.53
2023-01-23T09:03:55.072Z,9.97
2023-01-23T09:06:22.989Z,9.87
2023-01-23T09:08:49.904Z,9.80
2023-01-23T09:11:17.368Z,10.10
2023-01-23T09:13:46.217Z,9.97
2023-01-23T09:16:12.973Z,9.80
2023-01-23T09:18:39.751Z,10.27
2023-01-23T09:21:08.872Z,9.97
2023-01-23T09:23:35.740Z,9.88
2023-01-23T09:26:04.393Z,9.03
2023-01-23T09:28:31.231Z,9.00
2023-01-23T09:31:02.017Z,9.35
2023-01-23T09:33:28.843Z,9.50
2023-01-23T09:35:55.849Z,9.20
2023-01-23T09:38:22.664Z,9.23
2023-01-23T09:40:52.311Z,8.67
2023-01-23T09:43:31.511Z,8.30
2023-01-23T09:46:15.396Z,8.47
2023-01-23T09:49:11.130Z,8.10
2023-01-23T09:51:37.802Z,8.82
2023-01-23T09:54:30.301Z,9.17
2023-01-23T09:57:00.594Z,8.63
2023-01-23T09:59:53.873Z,8.43
2023-01-23T10:02:27.082Z,8.50
2023-01-23T10:04:54.656Z,7.72
2023-01-23T10:07:30.310Z,7.65
2023-01-23T10:10:34.724Z,7.97
2023-01-23T10:13:16.517Z,7.53
2023-01-23T10:16:17.364Z,7.33
2023-01-23T10:18:49.768Z,8.27
2023-01-23T10:21:35.152Z,7.83
2023-01-23T10:24:27.217Z,8.17
2023-01-23T10:26:58.193Z,8.70
2023-01-23T10:29:38.590Z,8.23
2023-01-23T10:32:23.159Z,7.43
2023-01-23T10:35:23.044Z,7.65
2023-01-23T10:37:59.686Z,7.97
2023-01-23T10:40:45.524Z,7.83
2023-01-23T10:43:20.788Z,8.15
2023-01-23T10:45:49.190Z,7.73
2023-01-23T10:48:35.013Z,7.20
2023-01-23T10:51:01.906Z,7.55
2023-01-23T10:53:28.600Z,7.70
2023-01-23T10:56:00.796Z,7.35
2023-01-23T10:58:44.791Z,6.97
2023-01-23T11:01:32.663Z,7.63
2023-01-23T11:04:21.373Z,7.30
2023-01-23T11:07:05.345Z,7.15
2023-01-23T11:09:32.767Z,7.28
2023-01-23T11:12:06.505Z,7.85
2023-01-23T11:14:33.774Z,7.13
2023-01-23T11:17:22.274Z,7.45
2023-01-23T11:19:54.497Z,8.15
2023-01-23T11:22:31.136Z,7.18
2023-01-23T11:24:58.544Z,7.07
2023-01-23T11:27:31.378Z,7.22
2023-01-23T11:30:35.957Z,7.13
2023-01-23T11:33:25.548Z,7.60
2023-01-23T11:36:02.411Z,7.43
2023-01-23T11:38:52.539Z,7.90
2023-01-23T11:41:25.979Z,7.13
2023-01-23T11:43:53.031Z,7.53
2023-01-23T11:46:25.696Z,7.93
2023-01-23T11:49:21.644Z,8.10
2023-01-23T11:51:48.510Z,7.43
2023-01-23T11:54:51.546Z,7.20
2023-01-23T11:57:39.425Z,7.85
2023-01-23T12:00:12.239Z,7.65
2023-01-23T12:02:51.079Z,7.00
2023-01-23T12:05:29.985Z,7.18
2023-01-23T12:08:19.614Z,7.47
2023-01-23T12:11:13.797Z,7.82
2023-01-23T12:14:04.529Z,7.28
2023-01-23T12:17:08.930Z,6.82
2023-01-23T12:20:02.658Z,6.85
2023-01-23T12:23:06.297Z,7.15
2023-01-23T12:25:38.321Z,6.88
2023-01-23T12:29:00.394Z,7.45
2023-01-23T12:31:34.607Z,7.50
2023-01-23T12:34:08.712Z,6.90
2023-01-23T12:37:14.104Z,7.10
2023-01-23T12:40:09.911Z,6.97
2023-01-23T12:42:53.114Z,7.18
2023-01-23T12:45:25.445Z,6.82
2023-01-23T12:47:55.770Z,7.18
2023-01-23T12:50:36.817Z,6.68
2023-01-23T12:53:12.543Z,6.47
2023-01-23T12:55:43.075Z,6.80
2023-01-23T12:58:16.059Z,6.70
2023-01-23T13:01:01.540Z,7.32
2023-01-23T13:03:55.745Z,6.20
2023-01-23T13:06:44.838Z,7.70
2023-01-23T13:09:20.874Z,7.40
2023-01-23T13:11:58.826Z,6.10
2023-01-23T13:14:39.763Z,6.65
2023-01-23T13:17:34.235Z,7.22
2023-01-23T13:20:38.344Z,7.60
2023-01-23T13:23:23.841Z,7.13
2023-01-23T13:26:14.971Z,7.47
2023-01-23T13:28:46.306Z,8.02
2023-01-23T13:31:37.663Z,7.32
2023-01-23T13:34:25.214Z,6.80
2023-01-23T13:36:53.327Z,7.40
2023-01-23T13:39:30.951Z,7.30
2023-01-23T13:42:18.842Z,6.90
2023-01-23T13:45:19.038Z,7.65
2023-01-23T14:21:57.121Z,9.10
2023-01-23T14:24:25.194Z,9.20
2023-01-23T14:27:02.546Z,9.70
2023-01-23T14:29:31.211Z,9.43
2023-01-23T14:31:58.073Z,9.95
2023-01-23T14:34:26.267Z,9.98
2023-01-23T14:37:04.339Z,8.85
2023-01-23T14:39:34.122Z,10.70
2023-01-23T14:42:02.719Z,9.75
2023-01-23T14:44:42.437Z,9.65
2023-01-23T14:47:27.309Z,9.82
2023-01-23T14:49:55.887Z,10.50
2023-01-23T14:52:26.667Z,10.67
2023-01-23T14:54:54.782Z,11.18
2023-01-23T14:57:23.881Z,10.90
2023-01-23T14:59:55.448Z,10.75
2023-01-23T15:02:31.705Z,10.55
2023-01-23T15:05:25.113Z,10.63
2023-01-23T15:07:54.936Z,10.87
2023-01-23T15:10:34.803Z,11.43
2023-01-23T15:13:12.770Z,10.63
2023-01-23T15:15:46.428Z,11.53
2023-01-23T15:18:35.731Z,11.10
2023-01-23T15:21:05.262Z,11.57
2023-01-23T15:23:37.624Z,11.53
2023-01-23T15:26:23.479Z,10.77
2023-01-23T15:29:02.394Z,11.40
2023-01-23T15:31:39.074Z,11.03
2023-01-23T15:35:06.374Z,12.33
2023-01-23T15:37:34.536Z,10.50
2023-01-23T15:40:04.519Z,11.43
2023-01-23T15:42:35.450Z,10.93
2023-01-23T15:45:03.705Z,13.33
2023-01-23T15:47:31.571Z,12.70
2023-01-23T15:50:02.876Z,11.60
2023-01-23T15:52:45.853Z,13.43
2023-01-23T15:55:14.341Z,14.00
2023-01-23T15:57:43.207Z,13.47
2023-01-23T16:00:29.436Z,12.10
2023-01-23T16:02:58.804Z,12.67
2023-01-23T16:05:36.793Z,13.13
2023-01-23T16:08:05.802Z,13.07
2023-01-23T16:10:37.016Z,13.00
2023-01-23T16:13:03.986Z,12.70
2023-01-23T16:15:35.257Z,11.63
2023-01-23T16:18:07.064Z,13.47
2023-01-23T16:20:35.214Z,12.07
2023-01-23T16:23:14.437Z,12.57
2023-01-23T16:25:44.875Z,12.40
2023-01-23T16:28:21.186Z,12.03
2023-01-23T16:30:49.698Z,12.07
2023-01-23T16:33:16.437Z,11.68
2023-01-23T16:35:44.027Z,12.60
2023-01-23T16:38:25.126Z,12.20
2023-01-23T16:40:53.637Z,13.40
2023-01-23T16:43:21.925Z,12.83
2023-01-23T16:45:55.067Z,12.50
2023-01-23T16:48:28.693Z,12.80
2023-01-23T16:51:00.109Z,12.23
2023-01-23T16:53:27.962Z,12.50
2023-01-23T16:55:56.632Z,12.90
2023-01-23T16:58:31.577Z,12.47
2023-01-23T17:01:04.681Z,12.33
2023-01-23T17:03:35.644Z,12.10
2023-01-23T17:06:42.925Z,13.03
2023-01-23T17:09:16.463Z,12.90
2023-01-23T17:12:50.139Z,12.20
2023-01-23T17:15:33.365Z,13.00
2023-01-23T17:18:01.164Z,12.70
2023-01-23T17:20:28.710Z,13.57
2023-01-23T17:22:55.719Z,13.47
2023-01-23T17:25:24.826Z,13.40
2023-01-23T17:28:11.124Z,13.33
2023-01-23T17:30:40.466Z,13.37
2023-01-23T17:33:24.271Z,13.80
2023-01-23T17:35:52.378Z,13.87
2023-01-23T17:38:27.627Z,14.10
2023-01-23T17:40:54.418Z,14.20
2023-01-23T17:43:21.746Z,13.83
2023-01-23T17:45:51.000Z,14.63
2023-01-23T17:48:25.163Z,13.87
2023-01-23T17:50:52.068Z,13.87
2023-01-23T17:53:19.427Z,14.23
2023-01-23T17:55:48.952Z,14.27
2023-01-23T17:58:16.039Z,15.03
2023-01-23T18:00:44.445Z,14.37
2023-01-23T18:03:17.642Z,14.80
2023-01-23T18:05:44.345Z,15.57
2023-01-23T18:08:19.960Z,14.23
2023-01-23T18:10:48.690Z,14.23
2023-01-23T18:13:49.252Z,14.33
2023-01-23T18:16:27.305Z,14.60
2023-01-23T18:19:23.983Z,15.77
2023-01-23T18:21:53.458Z,15.40
2023-01-23T18:24:27.558Z,14.37
2023-01-23T18:27:25.313Z,14.37
2023-01-23T18:30:01.226Z,14.77
2023-01-23T18:32:42.979Z,14.43
2023-01-23T18:35:30.859Z,14.77
2023-01-23T18:38:19.502Z,15.23
2023-01-23T18:41:14.846Z,15.60
2023-01-23T18:43:46.486Z,14.77
2023-01-23T18:46:22.142Z,14.03
2023-01-23T18:48:49.731Z,14.37
2023-01-23T18:51:45.528Z,14.10
2023-01-23T18:54:46.973Z,14.80
2023-01-23T18:57:35.221Z,15.73
2023-01-23T19:00:20.200Z,14.97
2023-01-23T19:02:52.138Z,14.13
2023-01-23T19:05:34.450Z,15.40
2023-01-23T19:08:02.376Z,14.73
2023-01-23T19:10:46.729Z,15.60
2023-01-23T19:13:43.790Z,14.83
2023-01-23T19:16:17.115Z,15.33
2023-01-23T19:19:16.194Z,14.70
2023-01-23T19:21:45.366Z,15.00
2023-01-23T19:24:12.585Z,14.63
2023-01-23T19:26:41.930Z,14.67
2023-01-23T19:29:21.470Z,14.60
2023-01-23T19:32:04.236Z,15.00
2023-01-23T19:34:33.482Z,14.53
2023-01-23T19:37:00.303Z,14.47
2023-01-23T19:39:27.115Z,14.00
2023-01-23T19:41:54.272Z,15.03
2023-01-23T19:44:24.341Z,15.93
2023-01-23T19:46:52.281Z,14.50
2023-01-23T19:49:19.183Z,14.20
2023-01-23T19:51:46.037Z,13.90
2023-01-23T19:54:14.386Z,14.07
2023-01-23T19:56:42.275Z,13.70
2023-01-23T19:59:09.477Z,14.97
2023-01-23T20:01:41.149Z,14.00
2023-01-23T20:04:12.909Z,13.53
2023-01-23T20:06:40.774Z,14.13
2023-01-23T20:09:08.242Z,13.50
2023-01-23T20:11:37.647Z,14.57
2023-01-23T20:14:04.704Z,13.40
2023-01-23T20:16:31.639Z,14.15
2023-01-23T20:18:58.547Z,13.73
2023-01-23T20:21:25.811Z,14.70
2023-01-23T20:23:52.829Z,14.27
2023-01-23T20:26:20.866Z,14.07
2023-01-23T20:28:49.506Z,13.93
2023-01-23T20:31:16.999Z,13.40
2023-01-23T20:33:43.869Z,14.20
2023-01-23T20:36:11.510Z,13.13
2023-01-23T20:38:39.475Z,13.23
2023-01-23T20:41:09.033Z,13.93
2023-01-23T20:43:36.171Z,13.50
2023-01-23T20:46:06.303Z,13.17
2023-01-23T20:48:40.486Z,14.73
2023-01-23T20:51:09.687Z,14.37
2023-01-23T20:53:39.448Z,14.10
2023-01-23T20:56:17.778Z,13.50
2023-01-23T20:59:08.255Z,13.63
2023-01-23T21:01:56.396Z,14.03
2023-01-23T21:04:26.342Z,14.80
2023-01-23T21:07:09.904Z,12.83
2023-01-23T21:09:36.915Z,14.47
2023-01-23T21:12:04.103Z,13.20
2023-01-23T21:14:31.478Z,13.80
2023-01-23T21:16:58.350Z,13.47
2023-01-23T21:19:25.055Z,13.53
2023-01-23T21:21:51.717Z,13.40
2023-01-23T21:24:18.751Z,14.93
2023-01-23T21:26:45.876Z,13.30
2023-01-23T21:29:12.578Z,13.33
2023-01-23T21:31:40.291Z,14.07
2023-01-23T21:34:10.241Z,13.83
2023-01-23T21:36:38.208Z,14.17
2023-01-23T21:39:07.558Z,14.70
2023-01-23T21:41:35.303Z,13.53
2023-01-23T21:44:02.020Z,13.57
2023-01-23T21:46:29.357Z,13.33
2023-01-23T21:48:56.094Z,13.10
2023-01-23T21:51:25.260Z,13.03
2023-01-23T21:53:52.058Z,14.20
2023-01-23T21:56:20.843Z,14.27
2023-01-23T21:58:48.171Z,14.37
2023-01-23T22:01:33.851Z,13.57
2023-01-23T22:04:03.508Z,13.17
2023-01-23T22:06:31.530Z,13.47
2023-01-23T22:11:39.395Z,12.97
2023-01-23T22:14:06.123Z,13.53
2023-01-23T22:16:47.410Z,13.13
2023-01-23T22:19:18.125Z,13.30
2023-01-23T22:21:46.459Z,14.47
2023-01-23T22:24:14.137Z,13.57
2023-01-23T22:26:40.886Z,13.73
2023-01-23T22:29:08.462Z,13.60
2023-01-23T22:31:35.279Z,14.17
2023-01-23T22:34:02.034Z,13.73
2023-01-23T22:36:28.833Z,13.83
2023-01-23T22:38:56.481Z,14.30
2023-01-23T22:41:24.047Z,14.80
2023-01-23T22:43:54.892Z,13.60
2023-01-23T22:46:22.521Z,14.13
2023-01-23T22:48:49.513Z,13.50
2023-01-23T22:51:24.220Z,14.37
2023-01-23T22:53:52.429Z,13.47
2023-01-23T22:56:19.199Z,13.90
2023-01-23T22:58:50.094Z,14.70
2023-01-23T23:01:17.909Z,13.20
2023-01-23T23:03:45.127Z,13.53
2023-01-23T23:06:13.952Z,13.83
2023-01-23T23:08:41.130Z,13.83
2023-01-23T23:11:14.385Z,13.33
2023-01-23T23:13:41.480Z,13.57
2023-01-23T23:16:19.762Z,14.30
2023-01-23T23:18:48.407Z,14.10
2023-01-23T23:21:18.949Z,13.23
2023-01-23T23:23:46.207Z,13.80
2023-01-23T23:26:13.924Z,13.77
2023-01-23T23:28:41.417Z,13.97
2023-01-23T23:31:09.036Z,14.47
2023-01-23T23:33:36.865Z,14.00
2023-01-23T23:36:03.837Z,13.93
2023-01-23T23:38:30.530Z,14.20
2023-01-23T23:41:00.074Z,13.20
2023-01-23T23:43:27.260Z,14.23
2023-01-23T23:45:56.258Z,14.27
2023-01-23T23:48:23.880Z,14.30
2023-01-23T23:50:50.974Z,13.80
2023-01-23T23:53:18.280Z,14.67
2023-01-23T23:55:45.628Z,13.90
2023-01-23T23:58:12.450Z,13.80
